ESMSESGJ

Guest
Details From ESMS - Malmo Sturup
To ESGJ - Jonkoping
Flight Number -
Tags generated
Created
Modified
Stats Distance 136 nm / 251 km
Max Altitude 7,700 ft / 2,347 m
Waypoints 3
Social Downloads 6
Likes 0
Share VATSIM

Download

Looking for another format? Having issues loading an existing format? Contact us
Advertisement - Login to hide

Notes

Basic altitude profile: - Ascent Rate: 2500ft/min - Ascent Speed: 250kts - Cruise Altitude: 35000ft - Cruise Speed: 420kts - Descent Rate: 1500ft/min - Descent Speed: 250kts Options: - Use NATs: yes - Use PACOTS: yes - Use low airways: yes - Use high airways: yes

Route

ESMS TOKSI ESGJ

ID Type Via Altitude Latitude Longitude Leg Dist Tot Dist Heading (true) Name
O ESMS APT - 0 ft / 0 m 55.52888˚ 13.37111˚ - 0 nm - Malmo Sturup
TOKSI FIX - 7,700 ft / 2,347 m 57.15558˚ 13.91103˚ 99 nm 99 nm 10° / 11° -
O ESGJ APT - 0 ft / 0 m 57.75505˚ 14.07110˚ 36 nm 135 nm 8° / 8° Jonkoping

Altitude Profile

Advertisement - Login to hide

ESMS

Details ICAO ESMS (MMX)
Name Malmo Sturup
Region Sweden
Timezone Europe/Stockholm (UTC+2.0)
Stats Elevation 236 ft / 72 m (AMSL)
Location 55.528883° 13.371109°
Runways 2
Magnetic Variation 4.027° E

METAR

ESMS 201220Z 15009KT CAVOK 19/07 Q1028

Decode

TAF

TAF ESMS 201057Z 2012/2112 15012KT 9999 SCT045

Decode

Departure Runways

ID Width Length Bearing (true) Bearing (mag) Surface Threshold Offset Overrun Length
11 59 ft / 18 m 2,609 ft / 795 m 105.31° 101.28° Asphalt 0 ft / 0 m 0 ft / 0 m
17 148 ft / 45 m 9,176 ft / 2,797 m 173.36° 169.33° Asphalt 0 ft / 0 m 98 ft / 30 m
29 59 ft / 18 m 2,609 ft / 795 m 285.32° 281.29° Asphalt 0 ft / 0 m 0 ft / 0 m
35 148 ft / 45 m 9,176 ft / 2,797 m 353.37° 349.34° Asphalt 0 ft / 0 m 98 ft / 30 m

ESGJ

Details ICAO ESGJ (JKG)
Name Jonkoping
Region Sweden
Timezone Europe/Stockholm (UTC+2.0)
Stats Elevation 741 ft / 226 m (AMSL)
Location 57.755046° 14.071101°
Runways 2
Magnetic Variation 4.453° E

METAR

ESGJ 201220Z AUTO 22006KT 160V290 9999 NCD 23/04 Q1027

Decode

TAF

Not found

Destination Runways

ID Width Length Bearing (true) Bearing (mag) Surface Threshold Offset Overrun Length
01 148 ft / 45 m 7,218 ft / 2,200 m 18.04° 13.59° Asphalt 0 ft / 0 m 212 ft / 65 m
11 82 ft / 25 m 1,960 ft / 598 m 114.43° 109.98° Dirt 0 ft / 0 m 0 ft / 0 m
19 148 ft / 45 m 7,218 ft / 2,200 m 198.05° 193.60° Asphalt 0 ft / 0 m 117 ft / 36 m
29 82 ft / 25 m 1,960 ft / 598 m 294.44° 289.99° Dirt 0 ft / 0 m 0 ft / 0 m

Approach Navaids

Runway Type Ident Frequency Range Bearing (true) Bearing (mag) Slope Elevation
19 Localiser SJ 109.90 MHz 18 nm / 33 km 198.03° 193.58° - 741 ft / 226 m (AMSL)
19 Glidescope SJ 109.90 MHz 10 nm / 19 km 198.04° 193.59° 3.00° 741 ft / 226 m (AMSL)

Popular Alternatives